Etusivu
METAR-TAF:

METAR-TAF

Lentoasemat :

Windom Municipal Airport

Windom, Minnesota, Yhdysvallat

Leveyspiiri: 43-54-48N, Pituuspiiri: 095-06-34W, korkeus merenpinnasta: 430 m

Tämänhetkinen sää

Tämä raportti tehtiin 22 minuuttia sitten, kello 03.55 UTC
Tuuli 5 kn lounaasta
Lämpötila -6°C
Kosteus 93%
Ilmanpaine 1021 hPa
Näkyvyys: 16.1 km
Hajanaisia pilviä 900 ft:n korkeudessa
Hajonneita pilviä 8500 ft:n korkeudessa

METAR: KMWM 290355Z AUTO 22005KT 10SM SCT009 BKN085 M06/M07 A3016 RMK AO2

Aika: 22:17 (04:17 UTC)


TAF: puuttuu

Säähavainnot ja -ennusteet yli 4000 lentoasemalta (METAR- ja TAF-raportit).

Käytössä olevat sääasemat on merkitty karttaan keltaisilla ja punaisilla pisteillä.

Aseta hiiri pisteen päälle nähdäksesi sääaseman nimen.

Klikkaa sitten nähdäksesi säähavainnot ja -ennusteet.

Kartan vaihtaminen: klikkaa mustalla rastilla varustettuja vihreitä pisteitä, niin voit zoomata sisään; viivalla varustettua vihreää pistettä, niin voit zoomata ulos tai vihreitä nuolia, niin pääset viereisille kartoille.


METAR-TAF: